FW7092 Weather Reports


Display with metric or nautical units.
time (UTC)temp
F
wind
direction
speed
MPH
gust
MPH
rain 1hr
in
rain 24hr
in
rain mn
in
humidity
%
barometer
mb
20210422221615 49 269 18.0 22.0 0.00 0.00 0.00 45 1017.9
20210422221110 49 257 14.0 17.0 0.00 0.00 0.00 45 1017.6
20210422220606 49 294 8.0 10.0 0.00 0.00 0.00 46 1017.9
20210422220102 48 265 9.0 12.0 0.00 0.00 0.00 46 1017.9
20210422215553 47 302 3.0 12.0 0.00 0.00 0.00 48 1017.9
20210422215052 49 260 11.0 15.0 0.00 0.00 0.00 50 1017.9
20210422214548 49 279 18.0 20.0 0.00 0.00 0.00 51 1017.9
20210422214045 48 259 17.0 20.0 0.00 0.00 0.00 49 1017.9
20210422213543 48 273 17.0 20.0 0.00 0.00 0.00 46 1017.9
20210422213038 47 263 9.0 12.0 0.00 0.00 0.00 49 1017.9
20210422212533 47 251 16.0 22.0 0.00 0.00 0.00 52 1017.9
20210422212022 49 326 10.0 17.0 0.00 0.00 0.00 47 1017.9
20210422211518 49 279 22.0 27.0 0.00 0.00 0.00 47 1017.6
20210422211009 47 271 12.0 17.0 0.00 0.00 0.00 52 1017.9
20210422210504 46 294 13.0 22.0 0.00 0.00 0.00 50 1017.9
20210422205956 47 261 18.0 22.0 0.00 0.00 0.00 50 1017.9
20210422205449 47 318 12.0 17.0 0.00 0.00 0.00 51 1017.9
20210422204940 47 279 18.0 22.0 0.00 0.00 0.00 50 1017.9
20210422204440 48 265 19.0 22.0 0.00 0.00 0.00 51 1017.9
20210422203938 47 289 12.0 20.0 0.00 0.00 0.00 48 1017.9
20210422203429 47 267 23.0 25.0 0.00 0.00 0.00 53 1017.6
20210422202925 47 256 13.0 20.0 0.00 0.00 0.00 50 1018.3
20210422202421 48 276 18.0 22.0 0.00 0.00 0.00 50 1017.9
20210422201913 47 261 18.0 20.0 0.00 0.00 0.00 53 1017.9
20210422201411 48 276 19.0 27.0 0.00 0.00 0.00 52 1017.9
20210422200908 46 317 9.0 17.0 0.00 0.00 0.00 53 1018.3
20210422200406 46 277 15.0 20.0 0.00 0.00 0.00 52 1017.9
20210422195903 46 249 14.0 17.0 0.00 0.00 0.00 53 1018.3
20210422195359 46 271 15.0 22.0 0.00 0.00 0.00 57 1018.3
20210422194849 47 216 14.0 22.0 0.00 0.00 0.00 56 1018.3
20210422194346 48 247 21.0 25.0 0.00 0.00 0.00 55 1018.3
20210422193844 46 275 15.0 20.0 0.00 0.00 0.00 56 1018.3
20210422193343 45 265 20.0 22.0 0.00 0.00 0.00 54 1018.3
20210422192839 46 267 12.0 22.0 0.00 0.00 0.00 53 1018.6
20210422192334 46 258 17.0 22.0 0.00 0.00 0.00 57 1018.3
20210422191829 46 271 10.0 20.0 0.00 0.00 0.00 57 1018.3
20210422191324 46 266 18.0 20.0 0.00 0.00 0.00 57 1018.6
20210422190816 47 248 20.0 25.0 0.00 0.00 0.00 57 1018.6
20210422190313 46 269 15.0 22.0 0.00 0.00 0.00 52 1018.6
20210422185804 47 264 22.0 25.0 0.00 0.00 0.00 56 1018.6
20210422185301 47 273 20.0 25.0 0.00 0.00 0.00 56 1018.6
20210422184800 45 252 13.0 17.0 0.00 0.00 0.00 56 1018.6
20210422184252 44 271 12.0 20.0 0.00 0.00 0.00 59 1018.6
20210422183742 44 254 8.0 15.0 0.00 0.00 0.00 56 1018.9
20210422183237 46 253 12.0 15.0 0.00 0.00 0.00 57 1018.6
20210422182730 44 285 8.0 15.0 0.00 0.00 0.00 56 1018.6
20210422182229 44 332 7.0 17.0 0.00 0.00 0.00 56 1018.6
20210422181725 44 285 15.0 17.0 0.00 0.00 0.00 58 1018.9
20210422181220 44 285 14.0 20.0 0.00 0.00 0.00 58 1018.9
20210422180716 44 285 5.0 10.0 0.00 0.00 0.00 56 1018.6
20210422180215 45 257 12.0 12.0 0.00 0.00 0.00 59 1018.3
20210422175715 44 260 11.0 12.0 0.00 0.00 0.00 60 1018.6
20210422175212 43 259 9.0 17.0 0.00 0.00 0.00 63 1018.9
20210422174708 42 263 15.0 20.0 0.00 0.00 0.00 62 1018.9
20210422174144 43 293 12.0 20.0 0.00 0.00 0.00 57 1018.9
20210422173638 44 273 13.0 20.0 0.00 0.00 0.00 60 1018.9
20210422173136 44 298 6.0 15.0 0.00 0.00 0.00 55 1018.9
20210422172630 44 276 11.0 15.0 0.00 0.00 0.00 56 1018.9
20210422172127 43 252 8.0 15.0 0.00 0.00 0.00 55 1018.9
20210422171623 44 242 5.0 10.0 0.00 0.00 0.00 55 1018.9
20210422171117 44 302 8.0 10.0 0.00 0.00 0.00 57 1018.9
20210422170614 44 260 9.0 15.0 0.00 0.00 0.00 56 1019.3
20210422170112 43 282 8.0 15.0 0.00 0.00 0.00 56 1019.3
20210422165609 44 283 15.0 25.0 0.00 0.00 0.00 60 1019.3
20210422165104 43 280 16.0 20.0 0.00 0.00 0.00 60 1019.3
20210422164601 43 252 11.0 15.0 0.00 0.00 0.00 59 1019.6
20210422164059 43 279 11.0 17.0 0.00 0.00 0.00 58 1019.3
20210422163552 44 269 19.0 22.0 0.00 0.00 0.00 57 1019.3
20210422163049 44 267 15.0 20.0 0.00 0.00 0.00 62 1019.3
20210422162545 44 259 10.0 17.0 0.00 0.00 0.00 61 1019.6
20210422162040 44 267 18.0 22.0 0.00 0.00 0.00 61 1019.3
20210422161532 44 257 15.0 17.0 0.00 0.00 0.00 61 1019.6
20210422161026 44 267 8.0 10.0 0.00 0.00 0.00 61 1019.3
20210422160514 43 265 15.0 17.0 0.00 0.00 0.00 61 1019.6
20210422160011 43 277 9.0 17.0 0.00 0.00 0.00 59 1019.6
20210422155503 43 270 12.0 17.0 0.00 0.00 0.00 64 1020.0
20210422154957 42 262 8.0 17.0 0.00 0.00 0.00 61 1019.6
20210422154452 42 272 13.0 15.0 0.00 0.00 0.00 59 1020.0
20210422153943 42 271 12.0 22.0 0.00 0.00 0.00 65 1019.6
20210422153439 42 269 13.0 20.0 0.00 0.00 0.00 63 1019.6
20210422152938 42 258 10.0 15.0 0.00 0.00 0.00 61 1019.6
20210422152436 42 277 10.0 15.0 0.00 0.00 0.00 61 1019.6
20210422151931 42 287 11.0 15.0 0.00 0.00 0.00 61 1019.6
20210422151428 41 280 8.0 12.0 0.00 0.00 0.00 58 1019.6
20210422150923 41 260 8.0 15.0 0.00 0.00 0.00 58 1019.6
20210422150420 42 346 7.0 12.0 0.00 0.00 0.00 60 1019.6
20210422145912 41 272 7.0 15.0 0.00 0.00 0.00 64 1019.6
20210422145411 41 282 7.0 12.0 0.00 0.00 0.00 59 1019.3
20210422144908 41 277 10.0 17.0 0.00 0.00 0.00 65 1020.0
20210422144403 41 258 6.0 12.0 0.00 0.00 0.00 60 1020.0
20210422143900 40 240 8.0 15.0 0.00 0.00 0.00 65 1020.0
20210422143355 39 261 10.0 15.0 0.00 0.00 0.00 61 1019.6
20210422142850 39 265 7.0 12.0 0.00 0.00 0.00 57 1019.6
20210422142345 38 279 7.0 12.0 0.00 0.00 0.00 59 1019.6
20210422141843 38 306 5.0 10.0 0.00 0.00 0.00 65 1019.6
20210422141339 38 259 6.0 12.0 0.00 0.00 0.00 66 1020.0
20210422140828 38 277 6.0 10.0 0.00 0.00 0.00 68 1019.6
20210422140323 38 273 8.0 10.0 0.00 0.00 0.00 72 1020.0
20210422135821 37 276 8.0 10.0 0.00 0.00 0.00 74 1020.0
20210422135309 37 255 9.0 10.0 0.00 0.00 0.00 75 1020.0
20210422134807 36 259 6.0 10.0 0.00 0.00 0.00 76 1019.6
20210422134307 36 253 8.0 10.0 0.00 0.00 0.00 78 1020.0
20210422133802 36 255 2.0 7.0 0.00 0.00 0.00 78 1020.3
20210422133253 36 271 6.0 7.0 0.00 0.00 0.00 82 1020.0
20210422132753 35 259 4.0 7.0 0.00 0.00 0.00 83 1020.3
20210422132247 34 257 5.0 7.0 0.00 0.00 0.00 81 1020.0
20210422131742 34 256 7.0 7.0 0.00 0.00 0.00 82 1020.0
20210422131238 34 249 7.0 10.0 0.00 0.00 0.00 84 1020.0
20210422130731 33 262 5.0 10.0 0.00 0.00 0.00 85 1020.0
20210422130228 33 245 6.0 10.0 0.00 0.00 0.00 86 1020.0
20210422125720 33 258 8.0 10.0 0.00 0.00 0.00 85 1020.0
20210422125221 33 267 8.0 10.0 0.00 0.00 0.00 85 1020.0
20210422124714 33 254 6.0 10.0 0.00 0.00 0.00 86 1019.6
20210422124212 32 245 5.0 7.0 0.00 0.00 0.00 86 1019.6
20210422123709 32 227 4.0 5.0 0.00 0.00 0.00 87 1019.6
20210422123205 32 248 7.0 10.0 0.00 0.00 0.00 87 1019.6
20210422122700 31 271 7.0 7.0 0.00 0.00 0.00 88 1019.6
20210422122154 31 260 5.0 7.0 0.00 0.00 0.00 88 1019.6
20210422121639 31 238 4.0 5.0 0.00 0.00 0.00 89 1019.6
20210422121139 31 228 3.0 5.0 0.00 0.00 0.00 90 1019.3
20210422120635 30 220 4.0 5.0 0.00 0.00 0.00 89 1019.6
20210422120128 30 245 4.0 7.0 0.00 0.00 0.00 90 1019.3
20210422115625 30 251 3.0 5.0 0.00 0.00 0.00 91 1019.6
20210422115117 30 265 4.0 5.0 0.00 0.00 0.00 92 1019.3
20210422114612 30 250 1.0 3.0 0.00 0.00 0.00 92 1019.6
20210422114111 29 242 0.0 0.0 0.00 0.00 0.00 94 1019.3
20210422113610 28 216 1.0 7.0 0.00 0.00 0.00 95 1019.6
20210422113106 28 228 0.0 0.0 0.00 0.00 0.00 95 1019.3
20210422112606 27 215 0.0 0.0 0.00 0.00 0.00 95 1018.9
20210422112102 27 217 0.0 3.0 0.00 0.00 0.00 96 1018.9
20210422111558 26 221 1.0 3.0 0.00 0.00 0.00 96 1018.9
20210422111052 26 221 2.0 3.0 0.00 0.00 0.00 97 1018.9
20210422110546 26 208 1.0 3.0 0.00 0.00 0.00 97 1018.9
20210422110042 26 216 1.0 3.0 0.00 0.00 0.00 96 1018.9
20210422105528 26 224 2.0 3.0 0.00 0.00 0.00 97 1018.9
20210422105023 25 227 1.0 3.0 0.00 0.00 0.00 97 1018.9
20210422104517 25 234 0.0 0.0 0.00 0.00 0.00 97 1018.9
20210422104007 25 233 0.0 0.0 0.00 0.00 0.00 98 1018.9
20210422103501 25 244 0.0 0.0 0.00 0.00 0.00 98 1018.6
20210422102956 25 248 0.0 0.0 0.00 0.00 0.00 98 1018.6
20210422102454 25 249 0.0 3.0 0.00 0.00 0.00 99 1018.3
20210422101949 25 224 2.0 3.0 0.00 0.00 0.00 99 1018.3
20210422101443 25 245 2.0 3.0 0.00 0.00 0.00 99 1018.3
20210422100935 25 220 0.0 0.0 0.00 0.00 0.00 99 1018.6
20210422100433 25 219 0.0 0.0 0.00 0.00 0.00 99 1018.3
20210422095926 25 230 0.0 0.0 0.00 0.00 0.00 99 1018.6
20210422095422 25 226 0.0 0.0 0.00 0.00 0.00 99 1018.6
20210422094913 25 220 0.0 0.0 0.00 0.00 0.00 99 1018.3
20210422094401 25 221 0.0 0.0 0.00 0.00 0.00 99 1018.3
20210422093851 25 210 0.0 0.0 0.00 0.00 0.00 99 1018.3
20210422093350 25 222 0.0 0.0 0.00 0.00 0.00 99 1018.3
20210422092835 26 211 0.0 0.0 0.00 0.00 0.00 99 1018.3
20210422092330 26 228 0.0 0.0 0.00 0.00 0.00 99 1018.3
20210422091826 26 220 0.0 0.0 0.00 0.00 0.00 99 1018.3
20210422091324 26 226 0.0 0.0 0.00 0.00 0.00 99 1018.3
20210422090820 26 227 0.0 0.0 0.00 0.00 0.00 99 1018.3
20210422090231 26 227 0.0 0.0 0.00 0.00 0.00 99 1018.3
20210422085729 26 232 0.0 0.0 0.00 0.00 0.00 99 1018.3
20210422085223 25 233 0.0 0.0 0.00 0.00 0.00 99 1018.3
20210422084722 25 234 0.0 0.0 0.00 0.00 0.00 99 1018.3
20210422084209 25 227 0.0 0.0 0.00 0.00 0.00 99 1018.3
20210422083704 25 229 0.0 0.0 0.00 0.00 0.00 99 1018.3
20210422083202 25 223 0.0 0.0 0.00 0.00 0.00 99 1018.3
20210422082658 25 229 0.0 0.0 0.00 0.00 0.00 99 1018.3
20210422082152 25 239 0.0 0.0 0.00 0.00 0.00 99 1017.9
20210422081646 26 238 0.0 0.0 0.00 0.00 0.00 99 1017.9
20210422081144 26 242 0.0 0.0 0.00 0.00 0.00 99 1017.9
20210422080638 26 243 0.0 0.0 0.00 0.00 0.00 99 1017.9
20210422080134 26 240 0.0 0.0 0.00 0.00 0.00 99 1017.9
20210422075632 26 221 0.0 0.0 0.00 0.00 0.00 99 1017.9
20210422075127 26 217 0.0 0.0 0.00 0.00 0.00 99 1017.9
20210422074622 26 230 0.0 0.0 0.00 0.00 0.00 99 1017.9
20210422074117 26 237 0.0 0.0 0.00 0.00 0.00 99 1017.9
20210422073607 27 233 0.0 0.0 0.00 0.00 0.00 99 1017.9
20210422073107 27 254 0.0 0.0 0.00 0.00 0.00 99 1018.3
20210422072601 27 263 0.0 0.0 0.00 0.00 0.00 99 1017.9
20210422072055 27 256 0.0 0.0 0.00 0.00 0.00 99 1017.9
20210422071552 27 259 0.0 3.0 0.00 0.00 0.00 99 1018.3
20210422071045 27 237 1.0 3.0 0.00 0.00 0.00 99 1017.9
20210422070543 28 247 1.0 3.0 0.00 0.00 0.00 99 1017.9
20210422070034 28 246 0.0 0.0 0.00 0.00 0.00 99 1017.9
20210422065530 28 262 0.0 0.0 0.00 0.00 0.00 99 1017.9
20210422065025 28 265 0.0 0.0 0.00 0.00 0.00 99 1017.9
20210422064520 28 275 0.0 0.0 0.00 0.00 0.00 99 1017.9
20210422064020 28 275 1.0 3.0 0.00 0.00 0.00 99 1017.9
20210422063516 28 268 0.0 3.0 0.00 0.00 0.00 99 1017.9
20210422063013 29 264 0.0 0.0 0.00 0.00 0.00 99 1018.3
20210422062509 29 279 2.0 3.0 0.00 0.00 0.00 99 1017.9
20210422061948 29 259 2.0 3.0 0.00 0.00 0.00 99 1017.9
20210422061447 29 277 1.0 3.0 0.00 0.00 0.00 99 1018.3
20210422060939 30 275 2.0 5.0 0.00 0.00 0.00 99 1018.3
20210422060426 29 271 0.0 0.0 0.00 0.00 0.00 99 1018.3
20210422055925 30 273 2.0 3.0 0.00 0.00 0.00 99 1018.3
20210422055423 30 268 1.0 5.0 0.00 0.00 0.00 99 1017.9
20210422054922 30 267 2.0 3.0 0.00 0.00 0.00 99 1018.3
20210422054410 30 262 3.0 5.0 0.00 0.00 0.00 99 1018.3
20210422053905 30 263 3.0 5.0 0.00 0.00 0.00 99 1018.3
20210422053404 31 268 3.0 5.0 0.00 0.00 0.00 99 1018.3
20210422052853 31 277 4.0 7.0 0.00 0.00 0.00 99 1018.3
20210422052345 31 270 4.0 5.0 0.00 0.00 0.00 99 1018.3
20210422051842 30 274 3.0 5.0 0.00 0.00 0.00 99 1017.9
20210422051341 30 262 3.0 5.0 0.00 0.00 0.00 99 1018.3
20210422050839 30 265 3.0 7.0 0.00 0.00 0.00 99 1018.3
20210422050335 31 268 4.0 5.0 0.00 0.00 0.00 99 1018.3
20210422045823 30 271 4.0 7.0 0.00 0.00 0.00 99 1018.3
20210422045323 31 277 6.0 7.0 0.00 0.00 0.00 99 1018.3
20210422044819 31 271 6.0 7.0 0.00 0.00 0.00 99 1017.9
20210422044317 31 267 4.0 7.0 0.00 0.00 0.00 99 1018.3
20210422043816 31 256 4.0 5.0 0.00 0.00 0.00 99 1017.6
20210422043303 31 271 4.0 7.0 0.00 0.00 0.00 99 1017.9
20210422042804 31 264 5.0 10.0 0.00 0.00 0.00 99 1018.3
20210422042301 31 261 6.0 7.0 0.00 0.00 0.00 99 1017.9
20210422041758 31 268 5.0 7.0 0.00 0.00 0.00 99 1017.9
20210422041250 31 263 7.0 7.0 0.00 0.00 0.00 99 1017.9
20210422040747 31 263 6.0 7.0 0.00 0.00 0.00 99 1017.6
20210422040241 31 258 6.0 7.0 0.00 0.00 0.00 99 1017.9
20210422035729 31 267 5.0 7.0 0.00 0.59 0.59 99 1017.9
20210422035227 31 265 4.0 10.0 0.00 0.59 0.59 99 1017.9
20210422034725 31 268 6.0 7.0 0.00 0.59 0.59 99 1017.9
20210422034217 31 269 5.0 7.0 0.00 0.59 0.59 99 1017.9
20210422033710 31 263 5.0 7.0 0.00 0.59 0.59 99 1017.9
20210422033204 31 260 6.0 10.0 0.00 0.59 0.59 99 1017.9
20210422032703 31 261 6.0 10.0 0.00 0.59 0.59 99 1017.9
20210422032201 31 261 6.0 7.0 0.00 0.59 0.59 99 1018.3
20210422031659 31 255 6.0 7.0 0.00 0.59 0.59 99 1017.9
20210422031149 31 252 5.0 7.0 0.00 0.59 0.59 99 1017.9
20210422030645 31 267 5.0 7.0 0.00 0.59 0.59 99 1017.9
20210422030139 31 262 4.0 5.0 0.00 0.59 0.59 99 1017.9
20210422025633 31 265 3.0 5.0 0.00 0.59 0.59 99 1017.9
20210422025122 31 256 3.0 7.0 0.00 0.59 0.59 99 1018.3
20210422024622 31 262 5.0 7.0 0.00 0.59 0.59 99 1017.9
20210422024117 31 252 5.0 5.0 0.00 0.59 0.59 99 1017.9
20210422023606 31 253 3.0 5.0 0.00 0.59 0.59 99 1017.9
20210422023105 31 258 3.0 5.0 0.00 0.59 0.59 99 1017.9
20210422022556 31 253 3.0 7.0 0.00 0.59 0.59 99 1018.3
20210422022031 31 256 4.0 5.0 0.00 0.59 0.59 99 1017.9
20210422021528 31 258 3.0 5.0 0.00 0.59 0.59 99 1017.9
20210422021026 31 263 3.0 5.0 0.00 0.59 0.59 99 1017.6
20210422020524 31 261 2.0 5.0 0.00 0.59 0.59 99 1017.9
20210422020016 31 251 3.0 5.0 0.00 0.59 0.59 99 1017.9
20210422015509 31 249 3.0 5.0 0.00 0.59 0.59 99 1017.6
20210422015005 31 259 2.0 3.0 0.00 0.59 0.59 99 1017.6
20210422014501 31 263 3.0 5.0 0.00 0.59 0.59 99 1017.6
20210422013957 31 258 3.0 5.0 0.00 0.59 0.59 99 1017.6
20210422013456 31 255 3.0 5.0 0.00 0.59 0.59 99 1017.6
20210422012953 31 251 2.0 3.0 0.00 0.59 0.59 99 1017.6
20210422012449 31 252 2.0 3.0 0.00 0.59 0.59 99 1017.2
20210422011944 32 250 0.0 3.0 0.00 0.59 0.59 99 1017.6
20210422011440 32 249 2.0 3.0 0.00 0.59 0.59 99 1017.6
20210422010937 32 254 0.0 3.0 0.00 0.59 0.59 99 1017.6
20210422010429 32 256 2.0 3.0 0.00 0.59 0.59 99 1017.6
20210422005922 32 261 3.0 5.0 0.00 0.59 0.59 99 1017.6
20210422005419 33 257 3.0 5.0 0.00 0.59 0.59 99 1017.6
20210422004911 33 228 3.0 5.0 0.00 0.59 0.59 99 1017.2
20210422004409 33 255 5.0 7.0 0.00 0.59 0.59 99 1017.6
20210422003905 33 266 6.0 10.0 0.00 0.59 0.59 99 1017.6
20210422003400 33 263 7.0 10.0 0.00 0.59 0.59 98 1017.6
20210422002853 33 260 5.0 7.0 0.00 0.59 0.59 98 1017.6
20210422002350 33 251 8.0 12.0 0.00 0.59 0.59 97 1017.9
20210422001843 33 274 9.0 10.0 0.00 0.59 0.59 97 1017.6
20210422001341 34 261 6.0 12.0 0.00 0.59 0.59 97 1017.9
20210422000836 34 245 7.0 12.0 0.00 0.59 0.59 97 1017.6
20210422000336 34 260 11.0 12.0 0.00 0.59 0.59 96 1017.6
20210421235831 35 256 10.0 12.0 0.00 0.59 0.59 95 1017.6
20210421235324 35 259 9.0 12.0 0.00 0.59 0.59 93 1017.2
20210421234818 35 264 6.0 10.0 0.00 0.59 0.59 92 1017.6
20210421234315 36 251 10.0 12.0 0.00 0.59 0.59 91 1017.6
20210421233814 36 249 9.0 12.0 0.00 0.59 0.59 90 1017.6
20210421233310 36 260 8.0 15.0 0.00 0.59 0.59 87 1017.6
20210421232809 37 253 8.0 10.0 0.00 0.59 0.59 85 1017.6
20210421232300 37 283 6.0 7.0 0.00 0.59 0.59 83 1017.6
20210421231756 37 0 3.0 10.0 0.00 0.59 0.59 84 1017.9
20210421231255 37 288 6.0 7.0 0.00 0.59 0.59 85 1017.9
20210421230746 36 290 5.0 10.0 0.00 0.59 0.59 84 1017.6
20210421230238 36 278 13.0 15.0 0.00 0.59 0.59 84 1017.9
20210421225728 36 273 6.0 12.0 0.00 0.59 0.59 84 1017.9
20210421225221 36 354 3.0 10.0 0.00 0.59 0.59 85 1017.9
20210421224712 37 316 1.0 7.0 0.00 0.59 0.59 82 1017.9
20210421224210 37 290 2.0 3.0 0.00 0.59 0.59 81 1017.9
20210421223706 37 304 2.0 10.0 0.00 0.59 0.59 79 1017.9
20210421223204 37 21 1.0 10.0 0.00 0.59 0.59 80 1017.9
20210421222702 38 331 5.0 7.0 0.00 0.59 0.59 78 1017.6
20210421222200 38 13 2.0 5.0 0.00 0.59 0.59 78 1017.9